createdAt,value
2022-09-24T00:01:38.613Z,100369.97
2022-09-24T00:04:12.064Z,100360.41
2022-09-24T00:06:47.611Z,100363.19
2022-09-24T00:09:19.162Z,100358.88
2022-09-24T00:11:46.090Z,100353.06
2022-09-24T00:14:13.622Z,100362.19
2022-09-24T00:16:42.519Z,100367.44
2022-09-24T00:19:12.130Z,100355.88
2022-09-24T00:21:40.590Z,100351.50
2022-09-24T00:24:32.905Z,100349.16
2022-09-24T00:27:00.624Z,100354.63
2022-09-24T00:29:27.857Z,100353.34
2022-09-24T00:31:54.888Z,100355.06
2022-09-24T00:34:21.966Z,100353.78
2022-09-24T00:36:49.018Z,100347.19
2022-09-24T00:39:16.684Z,100350.91
2022-09-24T00:41:47.057Z,100340.53
2022-09-24T00:44:48.786Z,100346.31
2022-09-24T00:47:36.409Z,100344.66
2022-09-24T00:50:31.927Z,100337.19
2022-09-24T00:53:05.009Z,100331.31
2022-09-24T00:55:34.456Z,100318.69
2022-09-24T00:58:07.255Z,100316.50
2022-09-24T01:00:37.420Z,100312.66
2022-09-24T01:03:23.086Z,100305.06
2022-09-24T01:05:50.676Z,100306.47
2022-09-24T01:08:19.583Z,100309.22
2022-09-24T01:11:29.517Z,100299.97
2022-09-24T01:14:28.416Z,100300.28
2022-09-24T01:17:36.113Z,100304.44
2022-09-24T01:20:36.509Z,100310.22
2022-09-24T01:23:31.192Z,100305.13
2022-09-24T01:26:39.654Z,100304.03
2022-09-24T01:30:00.234Z,100310.25
2022-09-24T01:32:42.233Z,100305.59
2022-09-24T01:35:27.432Z,100301.00
2022-09-24T01:38:06.763Z,100291.59
2022-09-24T01:40:34.647Z,100291.22
2022-09-24T01:43:03.861Z,100286.53
2022-09-24T01:45:32.851Z,100289.28
2022-09-24T01:48:01.133Z,100292.91
2022-09-24T01:50:33.428Z,100288.34
2022-09-24T01:53:18.643Z,100286.56
2022-09-24T01:55:56.933Z,100287.50
2022-09-24T01:58:33.707Z,100276.78
2022-09-24T02:01:08.831Z,100274.00
2022-09-24T02:03:45.687Z,100262.13
2022-09-24T02:06:22.981Z,100261.03
2022-09-24T02:08:49.790Z,100257.19
2022-09-24T02:11:23.264Z,100261.84
2022-09-24T02:14:07.795Z,100259.94
2022-09-24T02:16:48.241Z,100260.09
2022-09-24T02:19:21.954Z,100262.56
2022-09-24T02:21:51.120Z,100271.94
2022-09-24T02:24:21.094Z,100276.91
2022-09-24T02:26:48.146Z,100274.69
2022-09-24T02:29:15.237Z,100279.78
2022-09-24T02:31:47.945Z,100274.16
2022-09-24T02:34:38.793Z,100275.25
2022-09-24T02:37:09.656Z,100272.63
2022-09-24T02:39:36.552Z,100261.31
2022-09-24T02:42:06.275Z,100266.69
2022-09-24T02:44:33.909Z,100267.25
2022-09-24T02:47:00.958Z,100261.06
2022-09-24T02:49:28.183Z,100271.94
2022-09-24T02:51:55.753Z,100267.22
2022-09-24T02:54:23.862Z,100274.56
2022-09-24T02:56:51.948Z,100264.88
2022-09-24T02:59:19.242Z,100259.50
2022-09-24T03:01:46.469Z,100260.47
2022-09-24T03:04:14.048Z,100265.72
2022-09-24T03:06:40.854Z,100254.25
2022-09-24T03:09:07.769Z,100256.66
2022-09-24T03:11:35.665Z,100258.44
2022-09-24T03:14:02.642Z,100259.38
2022-09-24T03:16:29.665Z,100261.88
2022-09-24T03:18:56.534Z,100256.22
2022-09-24T03:21:23.536Z,100244.91
2022-09-24T03:23:50.520Z,100248.50
2022-09-24T03:26:17.931Z,100246.84
2022-09-24T03:28:44.971Z,100239.28
2022-09-24T03:31:12.410Z,100242.44
2022-09-24T03:33:46.158Z,100232.38
2022-09-24T03:36:33.219Z,100234.59
2022-09-24T03:39:00.067Z,100237.91
2022-09-24T03:41:28.286Z,100228.22
2022-09-24T03:43:56.127Z,100225.19
2022-09-24T03:46:29.794Z,100232.78
2022-09-24T03:48:59.212Z,100226.16
2022-09-24T03:51:26.049Z,100227.13
2022-09-24T03:53:52.924Z,100223.22
2022-09-24T03:56:19.778Z,100225.03
2022-09-24T03:58:47.934Z,100228.34
2022-09-24T04:01:20.471Z,100237.03
2022-09-24T04:03:49.237Z,100232.31
2022-09-24T04:06:16.506Z,100241.97
2022-09-24T04:08:44.679Z,100237.25
2022-09-24T04:11:11.457Z,100239.16
2022-09-24T04:13:38.270Z,100229.00
2022-09-24T04:16:05.450Z,100236.41
2022-09-24T04:18:36.939Z,100238.88
2022-09-24T04:21:06.043Z,100228.81
2022-09-24T04:23:33.009Z,100221.09
2022-09-24T04:26:03.108Z,100220.44
2022-09-24T04:28:30.956Z,100222.09
2022-09-24T04:30:58.427Z,100219.75
2022-09-24T04:33:25.670Z,100215.91
2022-09-24T04:35:52.566Z,100218.78
2022-09-24T04:38:21.183Z,100216.75
2022-09-24T04:40:48.656Z,100210.53
2022-09-24T04:43:15.652Z,100217.69
2022-09-24T04:45:45.739Z,100219.75
2022-09-24T04:48:13.296Z,100215.75
2022-09-24T04:50:45.549Z,100224.28
2022-09-24T04:53:13.063Z,100216.53
2022-09-24T04:55:41.468Z,100217.94
2022-09-24T04:58:08.414Z,100208.06
2022-09-24T05:00:35.226Z,100221.66
2022-09-24T05:03:05.465Z,100226.78
2022-09-24T05:05:34.702Z,100222.16
2022-09-24T05:08:02.471Z,100213.22
2022-09-24T05:10:31.642Z,100211.28
2022-09-24T05:12:59.027Z,100221.44
2022-09-24T05:15:25.865Z,100222.06
2022-09-24T05:17:52.802Z,100219.75
2022-09-24T05:20:19.783Z,100224.31
2022-09-24T05:22:49.414Z,100225.38
2022-09-24T05:25:18.346Z,100226.50
2022-09-24T05:27:51.612Z,100221.66
2022-09-24T05:30:20.684Z,100228.28
2022-09-24T05:32:52.384Z,100224.16
2022-09-24T05:35:22.898Z,100239.78
2022-09-24T05:37:53.082Z,100247.91
2022-09-24T05:40:38.387Z,100244.13
2022-09-24T05:43:05.364Z,100244.09
2022-09-24T05:45:32.651Z,100242.69
2022-09-24T05:48:00.087Z,100246.16
2022-09-24T05:50:27.427Z,100246.03
2022-09-24T05:52:54.835Z,100252.78
2022-09-24T05:55:21.669Z,100244.38
2022-09-24T05:57:48.963Z,100247.78
2022-09-24T06:00:16.030Z,100250.16
2022-09-24T06:02:42.879Z,100246.44
2022-09-24T06:05:10.611Z,100250.81
2022-09-24T06:07:37.396Z,100254.22
2022-09-24T06:10:07.313Z,100255.50
2022-09-24T06:12:37.035Z,100251.38
2022-09-24T06:15:04.890Z,100261.44
2022-09-24T06:17:32.390Z,100265.44
2022-09-24T06:19:59.504Z,100264.91
2022-09-24T06:22:28.942Z,100260.09
2022-09-24T06:24:56.104Z,100262.78
2022-09-24T06:27:22.954Z,100264.31
2022-09-24T06:29:49.738Z,100261.28
2022-09-24T06:32:18.106Z,100261.59
2022-09-24T06:34:45.308Z,100262.81
2022-09-24T06:37:12.121Z,100258.13
2022-09-24T06:39:38.893Z,100263.03
2022-09-24T06:42:07.053Z,100263.72
2022-09-24T06:44:34.598Z,100262.81
2022-09-24T06:47:01.710Z,100270.47
2022-09-24T06:49:33.760Z,100273.25
2022-09-24T06:52:01.837Z,100274.06
2022-09-24T06:54:28.731Z,100284.47
2022-09-24T06:56:55.507Z,100289.50
2022-09-24T06:59:22.371Z,100288.34
2022-09-24T07:01:49.184Z,100285.59
2022-09-24T07:04:16.153Z,100280.66
2022-09-24T07:07:01.606Z,100269.66
2022-09-24T07:09:28.518Z,100276.81
2022-09-24T07:11:56.880Z,100276.97
2022-09-24T07:14:23.694Z,100287.22
2022-09-24T07:16:50.509Z,100288.03
2022-09-24T07:19:17.432Z,100284.44
2022-09-24T07:21:44.224Z,100279.81
2022-09-24T07:24:10.994Z,100286.91
2022-09-24T07:26:37.805Z,100291.97
2022-09-24T07:29:04.827Z,100289.50
2022-09-24T07:31:31.728Z,100294.94
2022-09-24T07:33:58.608Z,100296.94
2022-09-24T07:36:25.428Z,100299.78
2022-09-24T07:38:52.220Z,100294.88
2022-09-24T07:41:19.344Z,100306.13
2022-09-24T07:43:46.140Z,100305.47
2022-09-24T07:46:12.995Z,100307.81
2022-09-24T07:48:39.845Z,100303.19
2022-09-24T07:51:10.513Z,100291.97
2022-09-24T07:53:38.131Z,100292.56
2022-09-24T07:56:05.102Z,100291.25
2022-09-24T07:58:31.954Z,100287.66
2022-09-24T08:01:00.494Z,100298.50
2022-09-24T08:03:27.795Z,100293.09
2022-09-24T08:05:59.718Z,100287.00
2022-09-24T08:08:26.622Z,100290.38
2022-09-24T08:10:54.054Z,100289.41
2022-09-24T08:13:26.729Z,100294.84
2022-09-24T08:16:02.027Z,100296.09
2022-09-24T08:18:31.734Z,100295.19
2022-09-24T08:21:11.762Z,100304.25
2022-09-24T08:23:43.456Z,100312.91
2022-09-24T08:26:13.087Z,100312.66
2022-09-24T08:28:41.918Z,100305.81
2022-09-24T08:31:12.320Z,100314.25
2022-09-24T08:33:39.768Z,100311.41
2022-09-24T08:36:09.609Z,100312.88
2022-09-24T08:38:36.594Z,100313.69
2022-09-24T08:41:32.989Z,100312.47
2022-09-24T08:44:06.410Z,100302.75
2022-09-24T08:47:00.779Z,100302.75
2022-09-24T08:49:41.882Z,100298.19
2022-09-24T08:52:27.012Z,100307.31
2022-09-24T08:55:02.102Z,100301.25
2022-09-24T08:57:29.306Z,100308.97
2022-09-24T08:59:56.168Z,100313.94
2022-09-24T09:02:55.572Z,100311.06
2022-09-24T09:05:49.506Z,100317.09
2022-09-24T09:09:01.233Z,100316.38
2022-09-24T09:11:24.995Z,100315.28
2022-09-24T09:14:20.699Z,100313.06
2022-09-24T09:17:03.152Z,100319.44
2022-09-24T09:19:39.315Z,100319.25
2022-09-24T09:22:15.798Z,100320.44
2022-09-24T09:24:50.441Z,100308.09
2022-09-24T09:27:19.644Z,100306.94
2022-09-24T09:29:51.786Z,100316.28
2022-09-24T09:32:58.061Z,100307.97
2022-09-24T09:35:47.906Z,100310.94
2022-09-24T09:38:38.615Z,100306.75
2022-09-24T09:41:26.744Z,100301.38
2022-09-24T09:44:12.170Z,100304.41
2022-09-24T09:46:48.115Z,100307.63
2022-09-24T09:49:15.436Z,100305.59
2022-09-24T09:51:46.720Z,100302.31
2022-09-24T09:54:13.542Z,100295.88
2022-09-24T09:56:48.248Z,100299.19
2022-09-24T09:59:27.343Z,100299.75
2022-09-24T10:01:57.511Z,100301.44
2022-09-24T10:04:41.324Z,100294.72
2022-09-24T10:07:17.086Z,100300.03
2022-09-24T10:09:46.616Z,100305.22
2022-09-24T10:12:22.510Z,100300.88
2022-09-24T10:15:12.713Z,100295.09
2022-09-24T10:17:40.350Z,100291.16
2022-09-24T10:20:23.239Z,100289.19
2022-09-24T10:23:01.649Z,100286.97
2022-09-24T10:25:30.851Z,100287.59
2022-09-24T10:28:19.059Z,100290.28
2022-09-24T10:31:12.440Z,100277.75
2022-09-24T10:33:42.278Z,100274.16
2022-09-24T10:36:32.539Z,100282.88
2022-09-24T10:39:15.204Z,100272.81
2022-09-24T10:41:54.696Z,100270.16
2022-09-24T10:44:21.866Z,100257.75
2022-09-24T10:47:10.440Z,100253.50
2022-09-24T10:50:01.054Z,100241.66
2022-09-24T10:52:44.844Z,100238.03
2022-09-24T10:55:55.507Z,100243.72
2022-09-24T10:59:07.615Z,100251.31
2022-09-24T11:01:49.188Z,100259.78
2022-09-24T11:04:40.233Z,100258.75
2022-09-24T11:07:37.469Z,100258.69
2022-09-24T11:10:17.898Z,100258.66
2022-09-24T11:13:16.329Z,100261.22
2022-09-24T11:16:05.816Z,100266.88
2022-09-24T11:18:57.606Z,100263.78
2022-09-24T11:21:37.475Z,100261.69
2022-09-24T11:24:07.015Z,100269.59
2022-09-24T11:27:04.748Z,100263.13
2022-09-24T11:30:08.719Z,100256.75
2022-09-24T11:33:06.135Z,100248.25
2022-09-24T11:36:04.517Z,100248.50
2022-09-24T11:39:04.570Z,100244.19
2022-09-24T11:41:52.373Z,100237.66
2022-09-24T11:44:58.299Z,100244.03
2022-09-24T11:48:19.761Z,100238.53
2022-09-24T11:51:14.702Z,100232.66
2022-09-24T11:54:07.855Z,100237.34
2022-09-24T11:56:43.412Z,100226.59
2022-09-24T11:59:56.879Z,100225.88
2022-09-24T12:02:38.323Z,100224.53
2022-09-24T12:05:32.563Z,100218.47
2022-09-24T12:08:02.385Z,100219.69
2022-09-24T12:10:46.809Z,100219.91
2022-09-24T12:13:20.884Z,100206.84
2022-09-24T12:16:13.452Z,100197.69
2022-09-24T12:18:59.057Z,100199.34
2022-09-24T12:21:32.591Z,100204.25
2022-09-24T12:24:24.927Z,100200.19
2022-09-24T12:26:53.780Z,100202.19
2022-09-24T12:30:15.971Z,100198.31
2022-09-24T12:33:12.063Z,100193.78
2022-09-24T12:36:04.458Z,100186.47
2022-09-24T12:39:02.630Z,100189.00
2022-09-24T12:41:43.336Z,100196.03
2022-09-24T12:44:19.654Z,100192.19
2022-09-24T12:46:58.174Z,100189.78
2022-09-24T12:49:25.071Z,100187.97
2022-09-24T12:52:15.628Z,100186.09
2022-09-24T12:54:44.066Z,100186.00
2022-09-24T12:57:24.988Z,100182.19
2022-09-24T12:59:55.031Z,100189.63
2022-09-24T13:02:23.752Z,100188.78
2022-09-24T13:05:02.827Z,100193.09
2022-09-24T13:07:40.003Z,100190.41
2022-09-24T13:10:24.014Z,100184.91
2022-09-24T13:12:51.778Z,100183.03
2022-09-24T13:15:38.721Z,100183.44
2022-09-24T13:18:11.052Z,100183.84
2022-09-24T13:20:49.278Z,100172.28
2022-09-24T13:23:22.694Z,100172.34
2022-09-24T13:25:57.028Z,100172.94
2022-09-24T13:28:37.809Z,100169.44
2022-09-24T13:31:21.164Z,100171.50
2022-09-24T13:33:52.488Z,100175.91
2022-09-24T13:36:28.098Z,100172.63
2022-09-24T13:39:14.792Z,100174.94
2022-09-24T13:42:36.652Z,100169.75
2022-09-24T13:45:09.937Z,100167.97
2022-09-24T13:47:51.923Z,100160.72
2022-09-24T13:50:32.451Z,100162.09
2022-09-24T13:53:15.873Z,100163.41
2022-09-24T13:55:53.706Z,100167.47
2022-09-24T13:58:32.879Z,100161.00
2022-09-24T14:01:12.540Z,100157.00
2022-09-24T14:03:40.235Z,100158.94
2022-09-24T14:06:15.877Z,100164.88
2022-09-24T14:08:45.503Z,100166.66
2022-09-24T14:11:18.764Z,100165.75
2022-09-24T14:13:46.121Z,100157.47
2022-09-24T14:16:22.651Z,100156.28
2022-09-24T14:18:49.660Z,100151.34
2022-09-24T14:21:27.613Z,100151.75
2022-09-24T14:24:08.753Z,100145.97
2022-09-24T14:26:46.488Z,100153.63
2022-09-24T14:29:21.667Z,100146.69
2022-09-24T14:32:02.072Z,100144.31
2022-09-24T14:34:39.985Z,100142.75
2022-09-24T14:37:21.650Z,100144.50
2022-09-24T14:39:57.843Z,100144.13
2022-09-24T14:42:47.909Z,100137.16
2022-09-24T14:45:28.522Z,100143.09
2022-09-24T14:48:28.954Z,100136.53
2022-09-24T14:50:56.090Z,100133.19
2022-09-24T14:53:34.559Z,100133.44
2022-09-24T14:56:31.866Z,100132.91
2022-09-24T14:58:59.573Z,100127.66
2022-09-24T15:01:33.612Z,100121.38
2022-09-24T15:04:05.816Z,100130.03
2022-09-24T15:06:35.812Z,100127.75
2022-09-24T15:09:29.119Z,100126.56
2022-09-24T15:12:09.297Z,100121.38
2022-09-24T15:14:36.687Z,100125.16
2022-09-24T15:17:21.060Z,100128.38
2022-09-24T15:19:47.867Z,100133.25
2022-09-24T15:22:15.295Z,100125.22
2022-09-24T15:24:42.074Z,100130.72
2022-09-24T15:27:29.328Z,100129.47
2022-09-24T15:29:59.522Z,100122.88
2022-09-24T15:32:29.168Z,100116.03
2022-09-24T15:34:57.038Z,100123.34
2022-09-24T15:37:29.423Z,100125.09
2022-09-24T15:40:07.226Z,100129.56
2022-09-24T15:42:34.185Z,100128.47
2022-09-24T15:45:01.009Z,100134.56
2022-09-24T15:47:28.035Z,100128.91
2022-09-24T15:49:54.851Z,100119.78
2022-09-24T15:52:26.788Z,100127.34
2022-09-24T15:54:58.891Z,100136.88
2022-09-24T15:57:28.552Z,100128.91
2022-09-24T15:59:55.388Z,100141.66
2022-09-24T16:02:27.644Z,100139.75
2022-09-24T16:04:54.607Z,100130.44
2022-09-24T16:07:21.486Z,100134.13
2022-09-24T16:09:48.342Z,100134.47
2022-09-24T16:12:19.768Z,100129.53
2022-09-24T16:14:47.176Z,100136.16
2022-09-24T16:17:14.021Z,100134.25
2022-09-24T16:19:40.828Z,100141.09
2022-09-24T16:22:07.630Z,100130.75
2022-09-24T16:24:35.053Z,100140.53
2022-09-24T16:27:02.114Z,100151.25
2022-09-24T16:29:28.917Z,100155.94
2022-09-24T16:31:55.753Z,100155.13
2022-09-24T16:34:22.630Z,100154.38
2022-09-24T16:36:49.478Z,100163.28
2022-09-24T16:39:16.272Z,100156.34
2022-09-24T16:41:44.341Z,100163.34
2022-09-24T16:44:14.950Z,100175.06
2022-09-24T16:46:43.030Z,100180.69
2022-09-24T16:49:10.520Z,100182.03
2022-09-24T16:51:38.171Z,100184.22
2022-09-24T16:54:05.823Z,100183.13
2022-09-24T16:56:32.929Z,100175.13
2022-09-24T16:58:59.813Z,100171.31
2022-09-24T17:01:26.715Z,100176.41
2022-09-24T17:03:55.931Z,100182.22
2022-09-24T17:06:29.541Z,100182.88
2022-09-24T17:09:15.249Z,100184.50
2022-09-24T17:11:42.395Z,100184.97
2022-09-24T17:14:13.134Z,100187.47
2022-09-24T17:16:41.263Z,100185.25
2022-09-24T17:19:12.417Z,100190.84
2022-09-24T17:21:42.317Z,100189.16
2022-09-24T17:24:10.034Z,100186.91
2022-09-24T17:26:38.243Z,100189.75
2022-09-24T17:29:05.496Z,100180.22
2022-09-24T17:31:32.480Z,100190.53
2022-09-24T17:34:10.205Z,100195.91
2022-09-24T17:36:37.260Z,100188.50
2022-09-24T17:39:05.791Z,100179.88
2022-09-24T17:41:33.226Z,100177.63
2022-09-24T17:44:00.544Z,100186.34
2022-09-24T17:46:30.722Z,100186.47
2022-09-24T17:49:00.238Z,100194.28
2022-09-24T17:51:34.394Z,100193.66
2022-09-24T17:54:06.455Z,100195.28
2022-09-24T17:56:38.630Z,100190.56
2022-09-24T17:59:07.432Z,100193.75
2022-09-24T18:01:36.921Z,100191.13
2022-09-24T18:04:06.898Z,100191.94
2022-09-24T18:06:37.791Z,100187.97
2022-09-24T18:09:05.355Z,100181.53
2022-09-24T18:11:51.273Z,100177.59
2022-09-24T18:14:21.420Z,100176.09
2022-09-24T18:16:49.266Z,100171.34
2022-09-24T18:19:17.419Z,100176.09
2022-09-24T18:21:45.999Z,100176.81
2022-09-24T18:24:12.937Z,100180.22
2022-09-24T18:26:40.597Z,100183.00
2022-09-24T18:29:13.588Z,100183.81
2022-09-24T18:31:41.285Z,100178.53
2022-09-24T18:34:12.942Z,100191.84
2022-09-24T18:36:41.472Z,100191.69
2022-09-24T18:39:13.156Z,100202.84
2022-09-24T18:41:41.517Z,100201.38
2022-09-24T18:44:10.333Z,100190.59
2022-09-24T18:46:37.429Z,100198.53
2022-09-24T18:49:06.215Z,100200.19
2022-09-24T18:51:37.019Z,100193.09
2022-09-24T18:54:06.820Z,100209.03
2022-09-24T18:56:34.620Z,100216.75
2022-09-24T18:59:14.656Z,100216.03
2022-09-24T19:01:43.087Z,100207.66
2022-09-24T19:04:12.188Z,100217.66
2022-09-24T19:06:42.212Z,100211.38
2022-09-24T19:09:10.992Z,100206.88
2022-09-24T19:11:40.440Z,100215.59
2022-09-24T19:14:07.302Z,100223.78
2022-09-24T19:16:34.206Z,100233.97
2022-09-24T19:19:01.689Z,100232.09
2022-09-24T19:21:28.507Z,100230.38
2022-09-24T19:23:57.516Z,100248.13
2022-09-24T19:26:28.008Z,100249.81
2022-09-24T19:28:55.050Z,100253.41
2022-09-24T19:31:32.066Z,100258.53
2022-09-24T19:34:03.272Z,100267.59
2022-09-24T19:36:31.410Z,100270.81
2022-09-24T19:38:58.203Z,100283.72
2022-09-24T19:41:27.044Z,100277.25
2022-09-24T19:43:57.756Z,100293.34
2022-09-24T19:46:27.029Z,100303.78
2022-09-24T19:48:56.130Z,100301.53
2022-09-24T19:51:26.516Z,100294.75
2022-09-24T19:53:56.440Z,100287.16
2022-09-24T19:56:25.291Z,100296.00
2022-09-24T19:58:54.462Z,100301.53
2022-09-24T20:01:24.308Z,100308.69
2022-09-24T20:03:51.645Z,100302.84
2022-09-24T20:06:22.697Z,100303.78
2022-09-24T20:08:50.031Z,100307.41
2022-09-24T20:11:22.222Z,100296.75
2022-09-24T20:13:50.978Z,100293.88
2022-09-24T20:16:21.770Z,100297.19
2022-09-24T20:18:50.860Z,100290.69
2022-09-24T20:21:19.392Z,100291.47
2022-09-24T20:23:47.839Z,100294.50
2022-09-24T20:26:35.195Z,100299.47
2022-09-24T20:29:03.079Z,100294.66
2022-09-24T20:31:30.149Z,100296.44
2022-09-24T20:33:57.146Z,100304.50
2022-09-24T20:36:25.347Z,100307.25
2022-09-24T20:38:53.128Z,100314.16
2022-09-24T20:41:23.867Z,100306.22
2022-09-24T20:43:55.051Z,100315.91
2022-09-24T20:46:25.825Z,100315.59
2022-09-24T20:48:57.996Z,100314.63
2022-09-24T20:51:27.847Z,100315.13
2022-09-24T20:53:55.291Z,100307.03
2022-09-24T20:56:22.520Z,100303.22
2022-09-24T20:58:52.938Z,100305.06
2022-09-24T21:01:21.061Z,100305.28
2022-09-24T21:03:49.990Z,100302.38
2022-09-24T21:06:20.682Z,100302.66
2022-09-24T21:08:49.921Z,100298.00
2022-09-24T21:11:25.115Z,100300.50
2022-09-24T21:13:54.916Z,100289.91
2022-09-24T21:16:25.035Z,100295.59
2022-09-24T21:18:54.531Z,100294.41
2022-09-24T21:21:41.971Z,100298.22
2022-09-24T21:24:14.359Z,100298.44
2022-09-24T21:26:45.611Z,100299.69
2022-09-24T21:29:21.765Z,100291.78
2022-09-24T21:31:48.984Z,100292.06
2022-09-24T21:34:20.562Z,100292.00
2022-09-24T21:36:49.829Z,100287.72
2022-09-24T21:39:23.790Z,100283.66
2022-09-24T21:41:55.021Z,100281.31
2022-09-24T21:44:21.949Z,100280.66
2022-09-24T21:46:52.167Z,100289.38
2022-09-24T21:49:20.220Z,100288.53
2022-09-24T21:51:47.634Z,100286.59
2022-09-24T21:54:20.434Z,100284.63
2022-09-24T21:56:47.926Z,100293.53
2022-09-24T21:59:34.972Z,100279.66
2022-09-24T22:02:03.421Z,100279.66
2022-09-24T22:04:32.578Z,100284.63
2022-09-24T22:06:59.987Z,100280.38
2022-09-24T22:09:26.843Z,100274.03
2022-09-24T22:11:56.184Z,100273.00
2022-09-24T22:14:23.584Z,100286.13
2022-09-24T22:16:50.891Z,100273.31
2022-09-24T22:19:18.188Z,100275.34
2022-09-24T22:21:45.060Z,100281.41
2022-09-24T22:24:12.162Z,100279.59
2022-09-24T22:26:39.198Z,100281.19
2022-09-24T22:29:06.122Z,100269.84
2022-09-24T22:31:33.644Z,100275.63
2022-09-24T22:34:19.305Z,100277.19
2022-09-24T22:36:47.936Z,100279.75
2022-09-24T22:39:15.479Z,100274.50
2022-09-24T22:41:43.381Z,100276.44
2022-09-24T22:44:12.134Z,100276.91
2022-09-24T22:46:40.280Z,100272.81
2022-09-24T22:49:08.207Z,100279.31
2022-09-24T22:51:38.176Z,100279.25
2022-09-24T22:54:05.872Z,100276.84
2022-09-24T22:56:34.486Z,100280.38
2022-09-24T22:59:01.478Z,100278.63
2022-09-24T23:01:43.093Z,100281.19
2022-09-24T23:04:14.754Z,100273.66
2022-09-24T23:06:43.659Z,100275.56
2022-09-24T23:09:11.639Z,100277.84
2022-09-24T23:11:39.128Z,100276.22
2022-09-24T23:14:16.477Z,100280.38
2022-09-24T23:16:44.305Z,100273.66
2022-09-24T23:19:16.217Z,100270.69
2022-09-24T23:21:43.737Z,100269.91
2022-09-24T23:24:17.593Z,100269.75
2022-09-24T23:26:46.006Z,100274.03
2022-09-24T23:29:13.856Z,100282.63
2022-09-24T23:31:41.231Z,100271.41
2022-09-24T23:34:10.898Z,100283.91
2022-09-24T23:36:37.758Z,100282.09
2022-09-24T23:39:05.478Z,100272.69
2022-09-24T23:41:32.421Z,100270.34
2022-09-24T23:44:00.112Z,100275.94
2022-09-24T23:46:27.566Z,100269.41
2022-09-24T23:48:55.473Z,100276.75
2022-09-24T23:51:22.756Z,100274.66
2022-09-24T23:53:49.609Z,100260.00
2022-09-24T23:56:16.439Z,100273.16
2022-09-24T23:58:43.379Z,100270.69
